createdAt,value
2017-10-07T14:17:40.516Z,953.93
2017-10-07T14:18:40.335Z,953.94
2017-10-07T14:19:40.325Z,953.87
2017-10-07T14:20:40.315Z,953.88
2017-10-07T14:21:40.308Z,953.85
2017-10-07T14:22:40.295Z,953.92
2017-10-07T14:23:40.287Z,953.88
2017-10-07T14:24:40.276Z,953.96
2017-10-07T14:25:40.419Z,953.9
2017-10-07T14:26:40.260Z,953.9
2017-10-07T14:27:40.250Z,953.91
2017-10-07T14:28:40.240Z,953.77
2017-10-07T14:29:40.230Z,953.8
2017-10-07T14:30:40.221Z,953.84
2017-10-07T14:31:40.212Z,953.84
2017-10-07T14:32:40.202Z,953.75
2017-10-07T14:33:40.193Z,953.84
2017-10-07T14:34:40.183Z,953.83
2017-10-07T14:35:40.173Z,953.85
2017-10-07T14:36:40.180Z,953.85
2017-10-07T14:37:40.154Z,953.95
2017-10-07T14:38:40.147Z,953.92
2017-10-07T14:39:40.134Z,953.89
2017-10-07T14:40:40.126Z,953.95
2017-10-07T14:41:40.116Z,953.99
2017-10-07T14:42:40.124Z,953.9
2017-10-07T14:43:40.096Z,953.82
2017-10-07T14:44:40.147Z,953.81
2017-10-07T14:45:40.110Z,953.74
2017-10-07T14:46:40.066Z,953.85
2017-10-07T14:47:40.056Z,953.89
2017-10-07T14:48:40.050Z,953.71
2017-10-07T14:49:40.036Z,953.78
2017-10-07T14:50:40.025Z,953.85
2017-10-07T14:51:40.024Z,953.74
2017-10-07T14:52:40.006Z,953.72
2017-10-07T14:53:40.035Z,953.67
2017-10-07T14:54:39.985Z,953.59
2017-10-07T14:55:39.986Z,953.57
2017-10-07T14:56:39.966Z,953.54
2017-10-07T14:57:39.956Z,953.51
2017-10-07T14:58:39.947Z,953.48
2017-10-07T14:59:39.934Z,953.39
2017-10-07T15:00:39.925Z,953.34
2017-10-07T15:01:40.026Z,953.39
2017-10-07T15:02:39.904Z,953.41
2017-10-07T15:03:39.905Z,953.39
2017-10-07T15:04:39.895Z,953.34
2017-10-07T15:05:39.873Z,953.33
2017-10-07T15:06:39.892Z,953.36
2017-10-07T15:07:39.852Z,953.28
2017-10-07T15:08:39.841Z,953.17
2017-10-07T15:09:39.831Z,953.2
2017-10-07T15:10:39.822Z,953.17
2017-10-07T15:11:39.809Z,953.16
2017-10-07T15:12:39.799Z,953.21
2017-10-07T15:13:39.788Z,953.15
2017-10-07T15:14:39.780Z,953.13
2017-10-07T15:15:39.768Z,953.12
2017-10-07T15:16:39.757Z,953.08
2017-10-07T15:17:39.748Z,953.02
2017-10-07T15:18:39.737Z,953.17
2017-10-07T15:19:39.725Z,953.2
2017-10-07T15:20:39.715Z,953.17
2017-10-07T15:21:39.704Z,953.17
2017-10-07T15:22:39.693Z,953.19
2017-10-07T15:23:39.684Z,953.13
2017-10-07T15:24:39.673Z,953.03
2017-10-07T15:25:39.662Z,953.03
2017-10-07T15:26:39.651Z,952.97
2017-10-07T15:27:39.641Z,952.95
2017-10-07T15:28:39.629Z,952.93
2017-10-07T15:29:39.620Z,952.94
2017-10-07T15:30:39.610Z,952.85
2017-10-07T15:31:39.597Z,952.91
2017-10-07T15:32:39.608Z,952.88
2017-10-07T15:33:39.577Z,952.85
2017-10-07T15:34:39.568Z,952.85
2017-10-07T15:35:39.557Z,952.88
2017-10-07T15:36:39.546Z,952.83
2017-10-07T15:37:39.533Z,952.8
2017-10-07T15:38:39.523Z,952.81
2017-10-07T15:39:39.513Z,952.84
2017-10-07T15:40:39.508Z,952.82
2017-10-07T15:41:39.491Z,952.89
2017-10-07T15:42:39.502Z,952.85
2017-10-07T15:43:39.470Z,952.96
2017-10-07T15:44:39.459Z,952.9
2017-10-07T15:45:39.450Z,952.86
2017-10-07T15:46:39.438Z,952.86
2017-10-07T15:47:39.427Z,952.82
2017-10-07T15:48:39.415Z,952.89
2017-10-07T15:49:39.405Z,952.8
2017-10-07T15:50:39.396Z,952.8
2017-10-07T15:51:39.406Z,952.76
2017-10-07T15:52:39.373Z,952.77
2017-10-07T15:53:39.372Z,952.74
2017-10-07T15:54:39.353Z,952.71
2017-10-07T15:55:39.340Z,952.72
2017-10-07T15:56:39.329Z,952.74
2017-10-07T15:57:39.337Z,952.73
2017-10-07T15:58:39.308Z,952.74
2017-10-07T15:59:39.298Z,952.75
2017-10-07T16:00:39.288Z,952.66
2017-10-07T16:01:39.277Z,952.65
2017-10-07T16:02:39.265Z,952.67
2017-10-07T16:03:39.255Z,952.62
2017-10-07T16:04:39.244Z,952.64
2017-10-07T16:05:39.251Z,952.59
2017-10-07T16:06:39.220Z,952.6
2017-10-07T16:07:39.211Z,952.57
2017-10-07T16:08:39.199Z,952.53
2017-10-07T16:09:39.189Z,952.56
2017-10-07T16:10:39.178Z,952.38
2017-10-07T16:11:39.166Z,952.46
2017-10-07T16:12:39.176Z,952.45
2017-10-07T16:13:39.144Z,952.42
2017-10-07T16:14:39.134Z,952.42
2017-10-07T16:15:39.122Z,952.34
2017-10-07T16:16:39.116Z,952.37
2017-10-07T16:17:39.101Z,952.37
2017-10-07T16:18:39.089Z,952.3
2017-10-07T16:19:39.078Z,952.28
2017-10-07T16:20:39.067Z,952.29
2017-10-07T16:21:39.054Z,952.22
2017-10-07T16:22:39.043Z,952.17
2017-10-07T16:23:39.032Z,952.17
2017-10-07T16:24:39.021Z,952.17
2017-10-07T16:25:39.010Z,952.11
2017-10-07T16:26:38.998Z,952.09
2017-10-07T16:27:38.988Z,952.07
2017-10-07T16:28:38.976Z,952.15
2017-10-07T16:29:38.965Z,952.1
2017-10-07T16:30:38.955Z,952
2017-10-07T16:31:38.943Z,952.03
2017-10-07T16:32:38.942Z,951.84
2017-10-07T16:33:38.921Z,951.9
2017-10-07T16:34:38.926Z,951.94
2017-10-07T16:35:38.903Z,952
2017-10-07T16:36:38.885Z,951.97
2017-10-07T16:37:38.873Z,951.98
2017-10-07T16:38:38.863Z,951.96
2017-10-07T16:39:38.851Z,951.94
2017-10-07T16:40:38.883Z,951.97
2017-10-07T16:41:38.830Z,951.87
2017-10-07T16:42:38.819Z,951.83
2017-10-07T16:43:38.868Z,951.9
2017-10-07T16:44:38.793Z,951.9
2017-10-07T16:45:38.783Z,951.97
2017-10-07T16:46:38.795Z,951.88
2017-10-07T16:47:38.759Z,952.04
2017-10-07T16:48:38.748Z,951.95
2017-10-07T16:49:38.755Z,951.94
2017-10-07T16:50:38.724Z,951.93
2017-10-07T16:51:38.712Z,951.93
2017-10-07T16:52:38.722Z,951.95
2017-10-07T16:53:38.721Z,951.9
2017-10-07T16:54:38.677Z,951.88
2017-10-07T16:55:38.672Z,951.85
2017-10-07T16:56:38.656Z,951.89
2017-10-07T16:57:38.648Z,951.78
2017-10-07T16:58:38.630Z,951.88
2017-10-07T16:59:38.629Z,951.89
2017-10-07T17:00:38.608Z,951.95
2017-10-07T17:01:38.601Z,951.8
2017-10-07T17:02:38.584Z,951.83
2017-10-07T17:03:38.579Z,951.8
2017-10-07T17:04:38.562Z,951.8
2017-10-07T17:05:38.592Z,951.82
2017-10-07T17:06:38.537Z,951.79
2017-10-07T17:07:38.528Z,951.78
2017-10-07T17:08:38.514Z,951.74
2017-10-07T17:09:38.513Z,951.8
2017-10-07T17:10:38.490Z,951.74
2017-10-07T17:11:38.496Z,951.78
2017-10-07T17:12:38.466Z,951.78
2017-10-07T17:13:38.455Z,951.73
2017-10-07T17:14:38.442Z,951.76
2017-10-07T17:15:38.431Z,951.79
2017-10-07T17:16:38.416Z,951.88
2017-10-07T17:17:38.407Z,951.79
2017-10-07T17:18:38.395Z,951.76
2017-10-07T17:19:38.381Z,951.74
2017-10-07T17:20:38.369Z,951.73
2017-10-07T17:21:38.371Z,951.75
2017-10-07T17:22:38.346Z,951.76
2017-10-07T17:23:38.334Z,951.82
2017-10-07T17:24:38.322Z,951.79
2017-10-07T17:25:38.309Z,951.78
2017-10-07T17:26:38.299Z,951.81
2017-10-07T17:27:38.305Z,951.78
2017-10-07T17:28:38.275Z,951.78
2017-10-07T17:29:38.263Z,951.73
2017-10-07T17:30:38.251Z,951.7
2017-10-07T17:31:38.239Z,951.82
2017-10-07T17:32:38.233Z,951.71
2017-10-07T17:33:38.215Z,951.74
2017-10-07T17:34:38.202Z,951.94
2017-10-07T17:35:38.189Z,951.74
2017-10-07T17:36:38.177Z,951.81
2017-10-07T17:37:38.165Z,951.83
2017-10-07T17:38:38.176Z,951.85
2017-10-07T17:39:38.142Z,951.79
2017-10-07T17:40:38.130Z,951.74
2017-10-07T17:41:38.132Z,951.68
2017-10-07T17:42:38.105Z,951.69
2017-10-07T17:43:38.095Z,951.65
2017-10-07T17:44:38.082Z,951.6
2017-10-07T17:45:38.068Z,951.63
2017-10-07T17:46:38.070Z,951.59
2017-10-07T17:47:38.044Z,951.53
2017-10-07T17:48:38.032Z,951.44
2017-10-07T17:49:38.019Z,951.5
2017-10-07T17:50:38.009Z,951.52
2017-10-07T17:51:37.998Z,951.52
2017-10-07T17:52:37.987Z,951.55
2017-10-07T17:53:37.974Z,951.5
2017-10-07T17:54:37.967Z,951.52
2017-10-07T17:55:37.948Z,951.45
2017-10-07T17:56:37.935Z,951.4
2017-10-07T17:57:37.923Z,951.39
2017-10-07T17:58:37.912Z,951.39
2017-10-07T17:59:37.898Z,951.33
2017-10-07T18:00:37.887Z,951.41
2017-10-07T18:01:37.875Z,951.4
2017-10-07T18:02:37.863Z,951.37
2017-10-07T18:03:37.850Z,951.41
2017-10-07T18:04:37.856Z,951.37
2017-10-07T18:05:37.827Z,951.41
2017-10-07T18:06:37.815Z,951.45
2017-10-07T18:07:37.802Z,951.49
2017-10-07T18:08:37.790Z,951.47
2017-10-07T18:09:37.778Z,951.5
2017-10-07T18:10:37.764Z,951.4
2017-10-07T18:11:37.773Z,951.52
2017-10-07T18:12:37.742Z,951.69
2017-10-07T18:13:37.731Z,951.52
2017-10-07T18:14:37.717Z,951.52
2017-10-07T18:15:37.705Z,951.53
2017-10-07T18:16:37.693Z,951.53
2017-10-07T18:17:37.682Z,951.53
2017-10-07T18:18:37.669Z,951.49
2017-10-07T18:19:37.655Z,951.48
2017-10-07T18:20:37.695Z,951.51
2017-10-07T18:21:37.690Z,951.44
2017-10-07T18:22:37.620Z,951.36
2017-10-07T18:23:37.608Z,951.38
2017-10-07T18:24:37.598Z,951.37
2017-10-07T18:25:37.649Z,951.34
2017-10-07T18:26:37.572Z,951.34
2017-10-07T18:27:37.561Z,951.22
2017-10-07T18:28:37.547Z,951.2
2017-10-07T18:29:37.534Z,951.26
2017-10-07T18:30:37.522Z,951.31
2017-10-07T18:31:37.515Z,951.26
2017-10-07T18:32:37.576Z,951.18
2017-10-07T18:33:37.487Z,951.15
2017-10-07T18:34:37.474Z,951.18
2017-10-07T18:35:37.463Z,951.12
2017-10-07T18:36:37.450Z,951.11
2017-10-07T18:37:37.438Z,951.17
2017-10-07T18:38:37.426Z,951.18
2017-10-07T18:39:37.415Z,951.16
2017-10-07T18:40:37.401Z,951.22
2017-10-07T18:41:37.424Z,951.29
2017-10-07T18:42:37.404Z,951.13
2017-10-07T18:43:37.385Z,951.21
2017-10-07T18:44:37.352Z,951.17
2017-10-07T18:45:37.344Z,951.13
2017-10-07T18:46:37.328Z,951.15
2017-10-07T18:47:37.364Z,951.11
2017-10-07T18:48:37.360Z,951.07
2017-10-07T18:49:37.330Z,951.03
2017-10-07T18:50:37.280Z,951.08
2017-10-07T18:51:37.316Z,951.1
2017-10-07T18:52:37.304Z,951.07
2017-10-07T18:53:37.242Z,951.12
2017-10-07T18:54:37.266Z,951.14
2017-10-07T18:55:37.275Z,951.16
2017-10-07T18:56:37.207Z,951.11
2017-10-07T18:57:37.195Z,951.06
2017-10-07T18:58:37.182Z,951.07
2017-10-07T18:59:37.170Z,951.04
2017-10-07T19:00:37.158Z,951.06
2017-10-07T19:01:37.178Z,951.01
2017-10-07T19:02:37.135Z,951
2017-10-07T19:03:37.122Z,950.92
2017-10-07T19:04:37.110Z,950.95
2017-10-07T19:05:37.097Z,951
2017-10-07T19:06:37.086Z,950.97
2017-10-07T19:07:37.120Z,950.93
2017-10-07T19:08:37.107Z,951
2017-10-07T19:09:37.048Z,950.92
2017-10-07T19:10:37.037Z,950.94
2017-10-07T19:11:37.027Z,950.85
2017-10-07T19:12:37.012Z,950.86
2017-10-07T19:13:37.000Z,950.91
2017-10-07T19:14:36.991Z,950.84
2017-10-07T19:15:36.978Z,950.84
2017-10-07T19:16:36.963Z,950.94
2017-10-07T19:17:36.953Z,950.91
2017-10-07T19:18:36.941Z,950.89
2017-10-07T19:19:36.929Z,950.87
2017-10-07T19:20:36.916Z,950.83
2017-10-07T19:21:36.905Z,950.81
2017-10-07T19:22:36.891Z,950.79
2017-10-07T19:23:36.879Z,950.8
2017-10-07T19:24:36.868Z,950.8
2017-10-07T19:25:36.856Z,950.67
2017-10-07T19:26:36.845Z,950.75
2017-10-07T19:27:36.832Z,950.83
2017-10-07T19:28:36.819Z,950.77
2017-10-07T19:29:36.807Z,950.78
2017-10-07T19:30:36.797Z,950.78
2017-10-07T19:31:36.784Z,950.71
2017-10-07T19:32:36.772Z,950.75
2017-10-07T19:33:36.760Z,950.73
2017-10-07T19:34:36.748Z,950.69
2017-10-07T19:35:36.735Z,950.65
2017-10-07T19:36:36.732Z,950.66
2017-10-07T19:37:36.712Z,950.63
2017-10-07T19:38:36.699Z,950.6
2017-10-07T19:39:36.691Z,950.64
2017-10-07T19:40:36.676Z,950.6
2017-10-07T19:41:36.664Z,950.55
2017-10-07T19:42:36.652Z,950.58
2017-10-07T19:43:36.640Z,950.59
2017-10-07T19:44:36.628Z,950.55
2017-10-07T19:45:36.625Z,950.48
2017-10-07T19:46:36.606Z,950.53
2017-10-07T19:47:36.594Z,950.53
2017-10-07T19:48:36.579Z,950.42
2017-10-07T19:49:36.567Z,950.58
2017-10-07T19:50:36.555Z,950.57
2017-10-07T19:51:36.545Z,950.57
2017-10-07T19:52:36.533Z,950.52
2017-10-07T19:53:36.518Z,950.52
2017-10-07T19:54:36.507Z,950.52
2017-10-07T19:55:36.495Z,950.43
2017-10-07T19:56:36.482Z,950.43
2017-10-07T19:57:36.472Z,950.43
2017-10-07T19:58:36.458Z,950.39
2017-10-07T19:59:36.447Z,950.47
2017-10-07T20:00:36.435Z,950.31
2017-10-07T20:01:36.423Z,950.41
2017-10-07T20:02:36.410Z,950.43
2017-10-07T20:03:36.398Z,950.42
2017-10-07T20:04:36.401Z,950.41
2017-10-07T20:05:36.374Z,950.42
2017-10-07T20:06:36.364Z,950.4
2017-10-07T20:07:36.349Z,950.41
2017-10-07T20:08:36.337Z,950.43
2017-10-07T20:09:36.325Z,950.44
2017-10-07T20:10:36.314Z,950.44
2017-10-07T20:11:36.300Z,950.48
2017-10-07T20:12:36.289Z,950.45
2017-10-07T20:13:36.277Z,950.44
2017-10-07T20:14:36.264Z,950.36
2017-10-07T20:15:36.252Z,950.43
2017-10-07T20:16:36.241Z,950.39
2017-10-07T20:17:36.228Z,950.37
2017-10-07T20:18:36.214Z,950.48
2017-10-07T20:19:36.223Z,950.4
2017-10-07T20:20:36.190Z,950.44
2017-10-07T20:21:36.179Z,950.48
2017-10-07T20:22:36.216Z,950.43
2017-10-07T20:23:36.183Z,950.42
2017-10-07T20:24:36.142Z,950.43
2017-10-07T20:25:36.129Z,950.43
2017-10-07T20:26:36.117Z,950.32
2017-10-07T20:27:36.107Z,950.34
2017-10-07T20:28:36.095Z,950.37
2017-10-07T20:29:36.081Z,950.31
2017-10-07T20:30:36.069Z,950.34
2017-10-07T20:31:36.055Z,950.26
2017-10-07T20:32:36.043Z,950.3
2017-10-07T20:33:36.030Z,950.32
2017-10-07T20:34:36.024Z,950.36
2017-10-07T20:35:36.008Z,950.36
2017-10-07T20:36:35.995Z,950.38
2017-10-07T20:37:35.982Z,950.4
2017-10-07T20:38:35.971Z,950.35
2017-10-07T20:39:35.959Z,950.39
2017-10-07T20:40:35.944Z,950.47
2017-10-07T20:41:35.934Z,950.41
2017-10-07T20:42:35.987Z,950.54
2017-10-07T20:43:35.920Z,950.34
2017-10-07T20:44:35.897Z,950.35
2017-10-07T20:45:35.886Z,950.34
2017-10-07T20:46:35.872Z,950.34
2017-10-07T20:47:35.860Z,950.33
2017-10-07T20:48:35.853Z,950.35
2017-10-07T20:49:35.853Z,950.33
2017-10-07T20:50:35.823Z,950.29
2017-10-07T20:51:35.809Z,950.19
2017-10-07T20:52:35.798Z,950.19
2017-10-07T20:53:35.786Z,950.19
2017-10-07T20:54:35.773Z,950.23
2017-10-07T20:55:35.761Z,950.18
2017-10-07T20:56:35.748Z,950.23
2017-10-07T20:57:35.736Z,950.22
2017-10-07T20:58:35.724Z,950.12
2017-10-07T20:59:35.716Z,950.14
2017-10-07T21:00:35.716Z,950.17
2017-10-07T21:01:35.688Z,950.07
2017-10-07T21:02:35.675Z,950.07
2017-10-07T21:03:35.814Z,950.05
2017-10-07T21:04:35.651Z,950.08
2017-10-07T21:05:35.640Z,950.08
2017-10-07T21:06:35.626Z,950.12
2017-10-07T21:07:35.614Z,950.06
2017-10-07T21:08:35.602Z,950.04
2017-10-07T21:09:35.589Z,950.13
2017-10-07T21:10:35.589Z,950.08
2017-10-07T21:11:35.565Z,950.09
2017-10-07T21:12:35.553Z,950.09
2017-10-07T21:13:35.541Z,950.08
2017-10-07T21:14:35.529Z,950.05
2017-10-07T21:15:35.534Z,950.06
2017-10-07T21:16:35.565Z,950.01
2017-10-07T21:17:35.502Z,950
2017-10-07T21:18:35.479Z,949.96
2017-10-07T21:19:35.465Z,950.02
2017-10-07T21:20:36.720Z,949.97
2017-10-07T21:21:35.473Z,949.99
2017-10-07T21:22:35.464Z,949.88
2017-10-07T21:23:35.442Z,949.84
2017-10-07T21:24:35.408Z,949.87
2017-10-07T21:25:35.391Z,949.9
2017-10-07T21:26:35.381Z,950
2017-10-07T21:27:35.372Z,949.84
2017-10-07T21:28:35.356Z,949.83
2017-10-07T21:29:35.343Z,949.85
2017-10-07T21:30:35.331Z,949.85
2017-10-07T21:31:35.319Z,949.79
2017-10-07T21:32:35.306Z,949.8
2017-10-07T21:33:35.294Z,949.82
2017-10-07T21:34:35.283Z,949.83
2017-10-07T21:35:35.302Z,949.88
2017-10-07T21:36:35.257Z,949.93
2017-10-07T21:37:35.246Z,949.96
2017-10-07T21:38:35.333Z,950.01
2017-10-07T21:39:35.238Z,950.05
2017-10-07T21:40:35.208Z,950.02
2017-10-07T21:41:35.195Z,949.93
2017-10-07T21:42:35.183Z,949.84
2017-10-07T21:43:35.170Z,949.8
2017-10-07T21:44:35.161Z,949.86
2017-10-07T21:45:35.147Z,949.79
2017-10-07T21:46:35.133Z,949.84
2017-10-07T21:47:35.121Z,949.83
2017-10-07T21:48:35.112Z,949.87
2017-10-07T21:49:35.097Z,949.9
2017-10-07T21:50:35.099Z,949.94
2017-10-07T21:51:35.071Z,949.9
2017-10-07T21:52:35.061Z,949.91
2017-10-07T21:53:35.046Z,949.9
2017-10-07T21:54:35.034Z,949.92
2017-10-07T21:55:35.022Z,949.87
2017-10-07T21:56:35.010Z,949.89
2017-10-07T21:57:34.997Z,949.89
2017-10-07T21:58:35.000Z,949.83
2017-10-07T21:59:34.972Z,949.87
2017-10-07T22:00:34.973Z,949.8
2017-10-07T22:01:34.946Z,949.75
2017-10-07T22:02:34.957Z,949.82
2017-10-07T22:03:34.924Z,949.8
2017-10-07T22:04:34.910Z,949.74
2017-10-07T22:05:34.897Z,949.7
2017-10-07T22:06:34.885Z,949.7
2017-10-07T22:07:34.872Z,949.73
2017-10-07T22:08:34.861Z,949.66
2017-10-07T22:09:34.849Z,949.67
2017-10-07T22:10:34.844Z,949.57
2017-10-07T22:11:34.822Z,949.64
2017-10-07T22:12:34.810Z,949.66
2017-10-07T22:13:34.802Z,949.57
2017-10-07T22:14:34.786Z,949.64
2017-10-07T22:15:34.775Z,949.56
2017-10-07T22:16:34.761Z,949.5
2017-10-07T22:17:34.762Z,949.46
2017-10-07T22:18:34.736Z,949.5
2017-10-07T22:19:34.723Z,949.48
2017-10-07T22:20:34.712Z,949.5
2017-10-07T22:21:34.699Z,949.48
2017-10-07T22:22:34.690Z,949.43
2017-10-07T22:23:34.674Z,949.25
2017-10-07T22:24:34.661Z,949.33
2017-10-07T22:25:34.650Z,949.42
2017-10-07T22:26:34.685Z,949.41
2017-10-07T22:27:34.649Z,949.29
2017-10-07T22:28:34.689Z,949.27
2017-10-07T22:29:34.629Z,949.29
2017-10-07T22:30:34.625Z,949.3
2017-10-07T22:31:34.662Z,949.33
2017-10-07T22:32:34.590Z,949.31
2017-10-07T22:33:34.584Z,949.32
2017-10-07T22:34:34.580Z,949.28
2017-10-07T22:35:34.575Z,949.3
2017-10-07T22:36:34.546Z,949.29
2017-10-07T22:37:34.593Z,949.25
2017-10-07T22:38:34.513Z,949.28
2017-10-07T22:39:34.518Z,949.24
2017-10-07T22:40:34.502Z,949.25
2017-10-07T22:41:34.486Z,949.19
2017-10-07T22:42:34.500Z,949.22
2017-10-07T22:43:34.509Z,949.28
2017-10-07T22:44:34.430Z,949.34
2017-10-07T22:45:34.428Z,949.19
2017-10-07T22:46:34.401Z,949.22
2017-10-07T22:47:34.438Z,949.22
2017-10-07T22:48:34.384Z,949.23
2017-10-07T22:49:34.440Z,949.24
2017-10-07T22:50:34.386Z,949.22
2017-10-07T22:51:34.359Z,949.29
2017-10-07T22:52:34.343Z,949.2
2017-10-07T22:53:34.331Z,949.23
2017-10-07T22:54:34.320Z,949.21
2017-10-07T22:55:34.358Z,949.17
2017-10-07T22:56:34.308Z,949.3
2017-10-07T22:57:34.282Z,949.24
2017-10-07T22:58:34.278Z,949.18
2017-10-07T22:59:34.269Z,949.21
2017-10-07T23:00:34.237Z,949.17
2017-10-07T23:01:34.304Z,949.06
2017-10-07T23:02:34.217Z,949.15
2017-10-07T23:03:34.219Z,949.14
2017-10-07T23:04:34.187Z,949.04
2017-10-07T23:05:34.214Z,949.12
2017-10-07T23:06:34.136Z,949.08
2017-10-07T23:07:34.151Z,949.12
2017-10-07T23:08:34.163Z,949.09
2017-10-07T23:09:34.133Z,949.15
2017-10-07T23:10:34.086Z,949.12
2017-10-07T23:11:34.075Z,948.99
2017-10-07T23:12:34.061Z,949.09
2017-10-07T23:13:34.048Z,949.06
2017-10-07T23:14:34.036Z,949.09
2017-10-07T23:15:34.022Z,949.13
2017-10-07T23:16:34.012Z,949.06
2017-10-07T23:17:33.998Z,949.04
2017-10-07T23:18:33.985Z,949.1
2017-10-07T23:19:33.996Z,949.12
2017-10-07T23:20:33.962Z,949.13
2017-10-07T23:21:33.948Z,949.14
2017-10-07T23:22:33.936Z,949.14
2017-10-07T23:23:33.942Z,949.07
2017-10-07T23:24:33.916Z,949.15
2017-10-07T23:25:33.898Z,949.15
2017-10-07T23:26:33.886Z,949.13
2017-10-07T23:27:33.874Z,949.06
2017-10-07T23:28:33.861Z,949.14
2017-10-07T23:29:33.849Z,949.03
2017-10-07T23:30:33.838Z,948.98
2017-10-07T23:31:33.824Z,949.08
2017-10-07T23:32:33.814Z,949.09
2017-10-07T23:33:33.798Z,948.95
2017-10-07T23:34:33.787Z,948.96
2017-10-07T23:35:33.774Z,949
2017-10-07T23:36:33.761Z,949
2017-10-07T23:37:33.753Z,949.04
2017-10-07T23:38:33.736Z,948.97
2017-10-07T23:39:33.725Z,949.02
2017-10-07T23:40:33.713Z,948.96
2017-10-07T23:41:33.903Z,948.93
2017-10-07T23:42:33.687Z,948.94
2017-10-07T23:43:33.675Z,948.92
2017-10-07T23:44:33.662Z,948.86
2017-10-07T23:45:33.650Z,948.91
2017-10-07T23:46:33.637Z,948.83
2017-10-07T23:47:33.625Z,948.84
2017-10-07T23:48:33.633Z,948.88
2017-10-07T23:49:33.601Z,948.91
2017-10-07T23:50:33.587Z,948.87
2017-10-07T23:51:33.577Z,948.85
2017-10-07T23:52:33.563Z,948.91
2017-10-07T23:53:33.551Z,948.99
2017-10-07T23:54:33.538Z,948.86
2017-10-07T23:55:33.527Z,948.89
2017-10-07T23:56:33.513Z,948.86
2017-10-07T23:57:33.500Z,948.91
2017-10-07T23:58:33.488Z,948.79
2017-10-07T23:59:33.477Z,948.83
